Time;durP1;ratioP1;P1;durP2;ratioP2;P2;SDS_P1;SDS_P2;PMS_P1;PMS_P2;Temp;Humidity;BMP_temperature;BMP_pressure;BME280_temperature;BME280_humidity;BME280_pressure;Samples;Min_cycle;Max_cycle;Signal;HPM_P1;HPM_P2
2023/06/13 00:00:11;;;;;;;7.38;4.32;;;21.70;56.70;;;;;;4971724;28;20448;-81
2023/06/13 00:02:40;;;;;;;8.02;4.75;;;21.70;56.70;;;;;;4968594;28;20647;-81
2023/06/13 00:05:16;;;;;;;10.05;4.15;;;21.60;57.00;;;;;;4965566;28;20031;-81
2023/06/13 00:07:45;;;;;;;8.55;4.82;;;21.60;57.10;;;;;;4968283;28;20030;-81
2023/06/13 00:10:11;;;;;;;10.60;4.53;;;21.60;57.30;;;;;;4963804;28;20118;-81
2023/06/13 00:12:37;;;;;;;14.70;4.55;;;21.50;57.50;;;;;;4970396;28;20576;-81
2023/06/13 00:15:04;;;;;;;8.23;4.50;;;21.40;57.60;;;;;;4962248;28;20054;-81
2023/06/13 00:17:31;;;;;;;7.25;4.32;;;21.40;57.70;;;;;;4968244;28;20133;-81
2023/06/13 00:19:59;;;;;;;6.30;5.15;;;21.40;57.80;;;;;;4967839;28;20034;-81
2023/06/13 00:22:25;;;;;;;8.73;4.85;;;21.40;58.00;;;;;;4969093;28;20018;-81
2023/06/13 00:24:51;;;;;;;7.90;4.38;;;21.30;58.00;;;;;;4963251;28;20018;-80
2023/06/13 00:27:17;;;;;;;8.57;4.57;;;21.20;58.30;;;;;;4968132;28;20034;-82
2023/06/13 00:29:43;;;;;;;6.82;4.90;;;21.20;58.50;;;;;;4968524;28;20699;-81
2023/06/13 00:32:09;;;;;;;16.42;4.85;;;21.10;58.40;;;;;;4961138;28;20073;-81
2023/06/13 00:34:35;;;;;;;5.18;4.65;;;21.10;58.70;;;;;;4963862;28;20037;-81
2023/06/13 00:37:03;;;;;;;7.05;4.47;;;21.10;58.80;;;;;;4965890;28;20029;-81
2023/06/13 00:39:28;;;;;;;8.18;4.55;;;21.00;59.00;;;;;;4963172;28;20058;-81
2023/06/13 00:41:56;;;;;;;12.82;4.45;;;21.00;59.10;;;;;;4956243;28;20497;-81
2023/06/13 00:44:22;;;;;;;8.35;4.80;;;21.00;59.00;;;;;;4963035;28;20050;-80
2023/06/13 00:46:48;;;;;;;5.40;4.43;;;21.00;59.20;;;;;;4966170;28;20109;-81
2023/06/13 00:49:15;;;;;;;8.60;5.00;;;20.90;59.20;;;;;;4968274;28;20098;-80
2023/06/13 00:51:42;;;;;;;7.18;4.72;;;20.90;59.40;;;;;;4967710;28;20074;-80
2023/06/13 00:54:10;;;;;;;6.53;4.43;;;20.80;59.50;;;;;;4964279;28;20019;-80
2023/06/13 00:56:37;;;;;;;8.85;4.55;;;20.80;59.60;;;;;;4970547;28;20073;-81
2023/06/13 00:59:04;;;;;;;4.63;4.20;;;20.80;59.80;;;;;;4992059;28;20075;-80
2023/06/13 01:01:33;;;;;;;7.25;4.47;;;20.80;59.70;;;;;;4968589;28;20022;-81
2023/06/13 01:04:00;;;;;;;8.02;5.22;;;20.80;59.90;;;;;;4970341;28;20034;-83
2023/06/13 01:06:30;;;;;;;6.47;4.95;;;20.80;59.90;;;;;;4966429;28;20026;-81
2023/06/13 01:08:58;;;;;;;7.95;4.55;;;20.70;60.00;;;;;;4950231;28;20332;-81
2023/06/13 01:12:01;;;;;;;5.15;4.35;;;20.70;60.10;;;;;;4964034;28;20023;-82
2023/06/13 01:14:30;;;;;;;5.40;4.60;;;20.60;60.20;;;;;;4967379;28;20061;-81
2023/06/13 01:17:07;;;;;;;6.55;5.78;;;20.60;60.30;;;;;;4965162;28;20573;-81
2023/06/13 01:19:41;;;;;;;11.90;4.55;;;20.50;60.30;;;;;;4974099;28;20474;-81
2023/06/13 01:22:19;;;;;;;8.95;5.32;;;20.50;60.50;;;;;;4981198;28;20494;-81
2023/06/13 01:25:20;;;;;;;7.72;4.38;;;20.50;60.70;;;;;;4953388;28;20031;-81
2023/06/13 01:27:49;;;;;;;8.30;4.85;;;20.40;60.60;;;;;;4970013;28;20151;-81
2023/06/13 01:30:18;;;;;;;7.68;4.80;;;20.40;61.00;;;;;;4953893;28;20019;-81
2023/06/13 01:32:46;;;;;;;7.30;4.53;;;20.40;60.90;;;;;;4962268;28;20019;-81
2023/06/13 01:35:13;;;;;;;6.88;4.75;;;20.40;61.20;;;;;;4963035;28;20082;-82
2023/06/13 01:37:41;;;;;;;7.45;5.40;;;20.30;61.30;;;;;;4967228;28;20070;-80
2023/06/13 01:40:10;;;;;;;10.98;4.85;;;20.30;61.60;;;;;;4958076;28;20674;-81
2023/06/13 01:42:35;;;;;;;9.50;4.05;;;20.30;61.70;;;;;;4950127;28;20406;-80
2023/06/13 01:45:02;;;;;;;6.43;4.18;;;20.20;61.50;;;;;;4963457;28;20058;-80
2023/06/13 01:47:47;;;;;;;8.23;4.63;;;20.20;61.90;;;;;;4967733;28;20086;-81
2023/06/13 01:50:33;;;;;;;5.40;4.55;;;20.10;62.20;;;;;;4958345;28;20069;-81
2023/06/13 01:53:14;;;;;;;9.15;5.18;;;20.10;62.40;;;;;;4963245;28;20042;-81
2023/06/13 01:55:42;;;;;;;7.88;5.25;;;20.10;62.60;;;;;;4964534;28;20026;-81
2023/06/13 01:58:18;;;;;;;7.15;4.85;;;20.00;62.80;;;;;;4966321;28;20058;-80
2023/06/13 02:00:45;;;;;;;7.88;5.10;;;19.90;62.90;;;;;;4966903;28;20035;-81
2023/06/13 02:03:13;;;;;;;9.60;4.88;;;20.00;63.20;;;;;;4968693;28;20019;-81
2023/06/13 02:05:38;;;;;;;8.75;4.65;;;19.90;62.40;;;;;;4961502;28;21236;-81
2023/06/13 02:08:04;;;;;;;7.35;4.78;;;19.90;62.50;;;;;;4972891;28;20023;-80
2023/06/13 02:10:30;;;;;;;5.65;4.57;;;19.90;62.60;;;;;;4999961;28;20026;-81
2023/06/13 02:12:55;;;;;;;9.07;4.65;;;19.90;62.50;;;;;;4993418;28;20022;-81
2023/06/13 02:18:09;;;;;;;6.63;4.78;;;19.80;62.50;;;;;;5092741;27;20947;-82
2023/06/13 02:20:34;;;;;;;8.82;5.03;;;19.80;63.30;;;;;;5078407;28;20600;-82
2023/06/13 02:23:04;;;;;;;7.93;4.80;;;19.70;63.50;;;;;;5080809;28;20040;-81
2023/06/13 02:25:31;;;;;;;6.57;4.63;;;19.70;63.80;;;;;;5082281;28;20074;-81
2023/06/13 02:27:57;;;;;;;5.78;4.63;;;19.70;64.10;;;;;;5083186;28;20379;-82
2023/06/13 02:30:24;;;;;;;6.47;4.53;;;19.70;64.20;;;;;;5077467;28;20055;-81
2023/06/13 02:32:50;;;;;;;7.28;4.60;;;19.70;64.00;;;;;;5081085;28;20606;-82
2023/06/13 02:35:16;;;;;;;11.23;4.90;;;19.60;63.60;;;;;;5083285;28;20044;-81
2023/06/13 02:37:41;;;;;;;7.70;4.82;;;19.60;63.90;;;;;;5100322;28;20130;-81
2023/06/13 02:40:08;;;;;;;8.82;4.97;;;19.60;64.10;;;;;;5076254;28;20025;-81
2023/06/13 02:42:36;;;;;;;6.25;5.13;;;19.60;64.00;;;;;;5081392;28;20497;-81
2023/06/13 02:45:03;;;;;;;9.52;5.35;;;19.60;63.60;;;;;;5073715;28;20020;-80
2023/06/13 02:47:29;;;;;;;7.10;4.78;;;19.50;63.70;;;;;;5082188;28;20028;-81
2023/06/13 02:49:54;;;;;;;7.55;5.13;;;19.50;64.30;;;;;;5084368;28;20163;-81
2023/06/13 02:52:23;;;;;;;8.18;5.50;;;19.40;64.80;;;;;;5081651;28;20032;-80
2023/06/13 02:54:49;;;;;;;14.38;5.80;;;19.50;65.20;;;;;;5084169;28;20070;-81
2023/06/13 02:57:14;;;;;;;6.82;5.28;;;19.40;66.10;;;;;;5085762;28;20040;-80
2023/06/13 02:59:42;;;;;;;10.13;5.72;;;19.30;65.50;;;;;;5082768;28;20141;-80
2023/06/13 03:02:07;;;;;;;9.45;5.07;;;19.30;65.80;;;;;;5084693;28;20501;-81
2023/06/13 03:04:33;;;;;;;9.82;5.63;;;19.20;65.90;;;;;;5085228;28;20020;-81
2023/06/13 03:07:00;;;;;;;5.88;5.15;;;19.10;66.00;;;;;;5104929;28;20270;-82
2023/06/13 03:09:25;;;;;;;8.07;5.45;;;19.10;66.30;;;;;;5101595;28;20336;-82
2023/06/13 03:11:51;;;;;;;6.60;5.57;;;19.00;66.50;;;;;;5087850;28;20559;-81
2023/06/13 03:14:17;;;;;;;7.57;6.03;;;18.90;66.70;;;;;;5090013;28;20031;-82
2023/06/13 03:16:43;;;;;;;5.90;5.10;;;18.90;66.90;;;;;;5097848;28;20119;-80
2023/06/13 03:19:08;;;;;;;8.10;6.03;;;18.90;67.30;;;;;;5084303;28;20024;-80
2023/06/13 03:21:34;;;;;;;11.18;5.75;;;18.90;67.40;;;;;;5076808;28;20239;-82
2023/06/13 03:24:00;;;;;;;8.85;5.55;;;18.80;68.20;;;;;;5082314;28;20028;-81
2023/06/13 03:26:25;;;;;;;6.85;5.18;;;18.90;67.20;;;;;;5077693;28;20031;-81
2023/06/13 03:28:51;;;;;;;9.50;5.65;;;18.90;67.40;;;;;;5070539;28;20019;-81
2023/06/13 03:31:17;;;;;;;7.90;5.70;;;18.90;67.50;;;;;;5065623;28;20025;-81
2023/06/13 03:33:42;;;;;;;9.35;5.35;;;18.80;67.50;;;;;;5064071;28;20025;-80
2023/06/13 03:36:08;;;;;;;7.32;5.53;;;18.80;67.60;;;;;;5066846;28;20625;-80
2023/06/13 03:38:33;;;;;;;11.65;6.15;;;18.80;67.60;;;;;;5068490;28;20458;-81
2023/06/13 03:40:59;;;;;;;6.60;5.07;;;18.80;67.60;;;;;;5068145;28;20059;-82
2023/06/13 03:43:26;;;;;;;7.63;5.53;;;18.80;67.90;;;;;;5064535;28;20042;-81
2023/06/13 03:45:54;;;;;;;10.68;5.32;;;18.80;68.00;;;;;;5066891;28;20392;-81
2023/06/13 03:48:20;;;;;;;8.27;5.80;;;18.70;68.00;;;;;;5066240;28;20032;-81
2023/06/13 03:50:45;;;;;;;10.23;5.88;;;18.80;67.90;;;;;;5070087;28;20342;-79
2023/06/13 03:53:11;;;;;;;6.68;5.55;;;18.70;68.00;;;;;;5064126;28;20480;-81
2023/06/13 03:55:37;;;;;;;9.07;5.78;;;18.80;68.00;;;;;;5070535;28;20597;-81
2023/06/13 03:58:04;;;;;;;8.25;5.22;;;18.80;67.70;;;;;;5072363;28;20025;-80
2023/06/13 04:00:32;;;;;;;10.18;5.78;;;18.80;67.60;;;;;;5066133;28;20107;-80
2023/06/13 04:03:00;;;;;;;9.30;6.13;;;18.80;67.60;;;;;;5067891;28;20032;-82
2023/06/13 04:05:26;;;;;;;11.80;5.78;;;18.90;67.70;;;;;;5068006;28;20020;-82
2023/06/13 04:07:54;;;;;;;9.32;5.85;;;18.90;67.80;;;;;;5062527;28;20048;-80
2023/06/13 04:10:20;;;;;;;14.75;5.65;;;18.90;67.60;;;;;;5060244;28;20060;-81
2023/06/13 04:12:47;;;;;;;9.75;6.00;;;18.90;67.50;;;;;;5066494;28;20039;-81
2023/06/13 04:15:13;;;;;;;9.18;5.60;;;18.90;67.90;;;;;;5067142;28;20111;-81
2023/06/13 04:17:39;;;;;;;10.90;5.82;;;18.90;67.70;;;;;;5066368;28;20598;-81
2023/06/13 04:20:05;;;;;;;8.35;5.85;;;19.00;67.60;;;;;;5068035;28;20612;-82
2023/06/13 04:22:31;;;;;;;11.05;6.05;;;19.00;67.50;;;;;;5068256;28;20029;-82
2023/06/13 04:24:57;;;;;;;10.90;5.50;;;19.00;67.20;;;;;;5065564;28;20012;-81
2023/06/13 04:27:27;;;;;;;10.88;5.78;;;19.10;67.40;;;;;;5090034;28;20169;-82
2023/06/13 04:29:53;;;;;;;9.15;5.63;;;19.10;67.50;;;;;;5086867;28;20020;-82
2023/06/13 04:32:23;;;;;;;12.95;5.82;;;19.10;67.30;;;;;;5096917;28;20025;-81
2023/06/13 04:34:54;;;;;;;11.73;5.90;;;19.20;67.40;;;;;;5099380;28;20025;-82
2023/06/13 04:37:25;;;;;;;8.70;5.82;;;19.30;67.20;;;;;;5080064;28;20033;-81
2023/06/13 04:39:55;;;;;;;8.18;5.43;;;19.30;67.00;;;;;;5070927;28;20108;-81
2023/06/13 04:42:28;;;;;;;6.30;5.22;;;19.40;67.00;;;;;;5070743;28;20032;-81
2023/06/13 04:45:00;;;;;;;11.65;6.22;;;19.40;67.00;;;;;;5071402;28;20016;-81
2023/06/13 04:47:27;;;;;;;14.50;5.93;;;19.40;67.10;;;;;;5055243;28;20042;-82
2023/06/13 04:49:59;;;;;;;9.60;5.93;;;19.50;66.90;;;;;;5074547;28;20017;-81
2023/06/13 04:52:32;;;;;;;14.95;6.10;;;19.50;66.90;;;;;;5069919;28;20109;-81
2023/06/13 04:55:02;;;;;;;8.63;5.68;;;19.60;66.90;;;;;;5064852;28;20033;-81
2023/06/13 04:57:33;;;;;;;11.07;5.47;;;19.60;66.70;;;;;;5087699;28;20112;-84
2023/06/13 04:59:59;;;;;;;20.52;5.53;;;19.60;66.80;;;;;;5070514;28;20150;-83
2023/06/13 05:02:25;;;;;;;11.05;6.25;;;19.70;66.90;;;;;;5073409;28;20021;-84
2023/06/13 05:04:52;;;;;;;10.60;5.82;;;19.70;66.90;;;;;;5068744;28;20090;-85
2023/06/13 05:07:19;;;;;;;8.05;5.22;;;19.80;67.00;;;;;;5078140;28;20084;-84
2023/06/13 05:09:45;;;;;;;7.95;5.40;;;19.80;66.60;;;;;;5089265;28;20032;-80
2023/06/13 05:12:12;;;;;;;13.80;5.68;;;20.00;66.60;;;;;;5093334;28;20092;-83
2023/06/13 05:14:40;;;;;;;9.25;5.68;;;20.00;66.60;;;;;;5087270;28;20024;-87
2023/06/13 05:17:07;;;;;;;8.45;5.78;;;20.10;66.50;;;;;;5079591;28;20079;-86
2023/06/13 05:19:34;;;;;;;9.48;6.00;;;20.20;66.40;;;;;;5078778;28;20021;-78
2023/06/13 05:22:02;;;;;;;12.13;5.97;;;20.20;66.60;;;;;;5071335;28;20056;-79
2023/06/13 05:24:28;;;;;;;13.90;6.07;;;20.20;66.50;;;;;;5065999;28;20020;-80
2023/06/13 05:26:54;;;;;;;13.95;5.95;;;20.20;66.50;;;;;;5066684;28;20035;-79
2023/06/13 05:29:19;;;;;;;7.18;5.38;;;20.30;66.30;;;;;;5067211;28;20108;-79
2023/06/13 05:31:45;;;;;;;8.88;5.78;;;20.30;65.90;;;;;;5073307;28;20492;-87
2023/06/13 05:34:10;;;;;;;8.15;5.40;;;20.30;65.80;;;;;;5072432;28;20063;-86
2023/06/13 05:36:36;;;;;;;10.50;5.30;;;20.40;66.10;;;;;;5075441;28;20034;-86
2023/06/13 05:39:02;;;;;;;9.88;5.72;;;20.40;65.80;;;;;;5074939;28;20419;-86
2023/06/13 05:41:27;;;;;;;6.13;5.40;;;20.50;66.00;;;;;;5075939;28;20020;-87
2023/06/13 05:43:53;;;;;;;6.70;5.35;;;20.50;65.90;;;;;;5076394;28;20478;-87
2023/06/13 05:46:18;;;;;;;10.20;5.50;;;20.60;65.80;;;;;;5057718;28;20031;-86
2023/06/13 05:48:45;;;;;;;13.20;5.60;;;20.60;66.10;;;;;;5057955;28;20024;-86
2023/06/13 05:51:10;;;;;;;7.65;5.50;;;20.60;65.80;;;;;;5058234;28;20024;-84
2023/06/13 05:53:36;;;;;;;10.80;5.70;;;20.70;66.00;;;;;;5079502;28;20036;-86
2023/06/13 05:56:04;;;;;;;12.45;5.97;;;20.80;65.80;;;;;;5057438;28;20028;-79
2023/06/13 05:58:34;;;;;;;8.68;5.03;;;20.90;65.60;;;;;;5069642;28;20020;-86
2023/06/13 06:01:00;;;;;;;7.72;5.00;;;20.90;65.70;;;;;;5063714;28;20461;-87
2023/06/13 06:03:25;;;;;;;6.35;4.90;;;21.00;65.70;;;;;;5067929;28;20113;-86
2023/06/13 06:05:51;;;;;;;8.05;5.35;;;21.10;65.60;;;;;;5071341;28;20024;-87
2023/06/13 06:08:17;;;;;;;12.05;5.95;;;21.20;65.60;;;;;;5070081;28;20028;-87
2023/06/13 06:10:43;;;;;;;15.18;5.22;;;21.30;65.10;;;;;;5073974;28;20028;-87
2023/06/13 06:13:08;;;;;;;13.02;6.20;;;21.30;65.20;;;;;;5069144;28;20399;-77
2023/06/13 06:15:36;;;;;;;10.55;6.30;;;21.30;65.20;;;;;;5069398;28;20028;-80
2023/06/13 06:18:05;;;;;;;8.13;5.13;;;21.40;65.40;;;;;;5075564;28;20181;-85
2023/06/13 06:20:30;;;;;;;8.85;4.93;;;21.50;65.00;;;;;;5076483;28;20028;-85
2023/06/13 06:22:56;;;;;;;6.07;4.97;;;21.60;64.70;;;;;;5079683;28;20031;-86
2023/06/13 06:25:22;;;;;;;10.48;5.20;;;21.70;64.80;;;;;;5075323;28;20032;-85
2023/06/13 06:27:48;;;;;;;13.32;6.07;;;21.80;64.60;;;;;;5084201;28;20028;-79
2023/06/13 06:30:17;;;;;;;11.98;5.35;;;21.80;64.70;;;;;;5067628;28;20035;-79
2023/06/13 06:32:43;;;;;;;13.55;5.45;;;22.00;64.90;;;;;;5067624;28;20399;-79
2023/06/13 06:35:10;;;;;;;9.98;5.53;;;22.00;64.00;;;;;;5070284;28;20108;-79
2023/06/13 06:37:36;;;;;;;5.90;4.72;;;22.20;63.70;;;;;;5067097;28;20020;-79
2023/06/13 06:40:06;;;;;;;6.90;5.10;;;22.30;63.60;;;;;;5068136;28;20512;-79
2023/06/13 06:42:32;;;;;;;8.80;4.85;;;22.30;63.30;;;;;;5063427;28;20025;-79
2023/06/13 06:44:58;;;;;;;6.05;5.10;;;22.50;63.10;;;;;;5067983;28;20024;-79
2023/06/13 06:47:26;;;;;;;6.05;4.88;;;22.50;62.40;;;;;;5074359;28;20032;-85
2023/06/13 06:49:51;;;;;;;7.55;4.68;;;22.60;62.50;;;;;;5093861;28;20035;-85
2023/06/13 06:52:19;;;;;;;9.30;5.07;;;22.80;62.30;;;;;;5076181;28;20372;-85
2023/06/13 06:54:45;;;;;;;6.40;5.32;;;22.90;62.50;;;;;;5066699;28;20120;-85
2023/06/13 06:57:10;;;;;;;4.82;4.40;;;23.00;62.50;;;;;;5075601;28;20130;-84
2023/06/13 06:59:36;;;;;;;9.13;5.15;;;23.20;61.80;;;;;;5070375;28;20672;-84
2023/06/13 07:02:02;;;;;;;8.63;5.22;;;23.20;60.90;;;;;;5071897;28;20024;-83
2023/06/13 07:04:28;;;;;;;6.65;4.80;;;23.30;60.50;;;;;;5075540;28;20028;-78
2023/06/13 07:06:53;;;;;;;5.43;4.78;;;23.30;60.10;;;;;;5084359;28;20529;-79
2023/06/13 07:09:20;;;;;;;8.52;4.80;;;23.30;60.20;;;;;;5071753;28;20531;-82
2023/06/13 07:11:45;;;;;;;7.75;4.93;;;23.40;60.20;;;;;;5066883;28;20017;-82
2023/06/13 07:14:11;;;;;;;9.93;5.07;;;23.50;59.40;;;;;;5068593;28;20102;-82
2023/06/13 07:16:36;;;;;;;5.65;4.53;;;23.60;59.20;;;;;;5073286;28;20066;-83
2023/06/13 07:19:02;;;;;;;9.18;4.68;;;23.70;59.50;;;;;;5079607;28;20024;-83
2023/06/13 07:21:28;;;;;;;8.32;4.97;;;23.90;59.70;;;;;;5093105;28;20039;-81
2023/06/13 07:23:54;;;;;;;5.60;4.57;;;24.10;58.90;;;;;;5073560;28;20081;-81
2023/06/13 07:26:22;;;;;;;7.55;4.60;;;24.30;57.40;;;;;;5068877;28;20543;-80
2023/06/13 07:28:48;;;;;;;32.22;18.33;;;24.30;57.40;;;;;;5074788;28;20035;-85
2023/06/13 07:31:13;;;;;;;6.35;4.70;;;24.40;58.00;;;;;;5072598;28;20021;-81
2023/06/13 07:33:42;;;;;;;6.25;4.35;;;24.60;57.10;;;;;;5068301;28;20035;-80
2023/06/13 07:36:08;;;;;;;5.05;4.35;;;24.80;56.00;;;;;;5071972;28;20121;-81
2023/06/13 07:38:33;;;;;;;6.45;4.68;;;24.90;55.50;;;;;;5073147;28;20535;-81
2023/06/13 07:40:59;;;;;;;10.52;4.50;;;25.10;55.40;;;;;;5067133;28;20033;-81
2023/06/13 07:43:25;;;;;;;7.55;4.30;;;25.20;54.80;;;;;;5066853;28;20105;-81
2023/06/13 07:45:50;;;;;;;5.20;4.70;;;25.40;55.10;;;;;;5074989;28;20020;-81
2023/06/13 07:48:18;;;;;;;5.32;4.82;;;25.60;54.90;;;;;;5067624;28;20029;-81
2023/06/13 07:50:45;;;;;;;7.20;5.07;;;25.70;54.50;;;;;;5067993;28;20021;-83
2023/06/13 07:53:10;;;;;;;4.95;4.55;;;26.00;53.90;;;;;;5085069;28;20054;-82
2023/06/13 07:55:37;;;;;;;8.98;4.80;;;26.10;53.00;;;;;;5074990;28;20024;-81
2023/06/13 07:58:05;;;;;;;5.63;4.30;;;26.30;52.70;;;;;;5065789;28;20033;-81
2023/06/13 08:00:33;;;;;;;10.10;4.65;;;26.50;52.50;;;;;;5069647;28;20052;-80
2023/06/13 08:02:59;;;;;;;9.60;4.70;;;26.60;52.30;;;;;;5055651;28;20036;-83
2023/06/13 08:05:26;;;;;;;8.07;4.25;;;26.60;51.90;;;;;;5074865;28;20043;-81
2023/06/13 08:07:51;;;;;;;6.00;4.72;;;26.70;50.10;;;;;;5070618;28;20035;-84
2023/06/13 08:10:17;;;;;;;8.95;4.47;;;26.70;50.50;;;;;;5069607;28;20467;-83
2023/06/13 08:12:43;;;;;;;5.32;4.32;;;26.80;50.20;;;;;;5066288;28;20029;-83
2023/06/13 08:15:08;;;;;;;5.78;4.20;;;26.60;49.90;;;;;;5067360;28;20070;-82
2023/06/13 08:17:43;;;;;;;9.63;4.75;;;26.70;50.10;;;;;;5073784;28;20040;-83
2023/06/13 08:20:09;;;;;;;4.78;4.38;;;26.80;48.20;;;;;;5064445;28;20474;-82
2023/06/13 08:22:38;;;;;;;6.78;4.22;;;27.00;48.30;;;;;;5068426;28;20028;-82
2023/06/13 08:25:08;;;;;;;10.40;4.40;;;27.40;48.00;;;;;;5073479;28;20024;-81
2023/06/13 08:27:36;;;;;;;9.35;4.03;;;27.90;47.40;;;;;;5065088;28;20021;-80
2023/06/13 08:30:07;;;;;;;9.00;4.32;;;28.00;44.50;;;;;;5068612;28;20044;-82
2023/06/13 08:32:33;;;;;;;7.13;4.18;;;28.30;44.40;;;;;;5069308;28;20484;-80
2023/06/13 08:34:59;;;;;;;6.90;4.20;;;28.50;43.00;;;;;;5073291;28;20032;-81
2023/06/13 08:37:26;;;;;;;4.68;4.00;;;28.60;42.20;;;;;;5069779;28;20044;-81
2023/06/13 08:39:52;;;;;;;4.78;4.07;;;28.90;41.80;;;;;;5070374;28;20085;-81
2023/06/13 08:42:19;;;;;;;7.85;4.07;;;29.20;41.20;;;;;;5063865;28;20528;-80
2023/06/13 08:44:46;;;;;;;6.03;4.60;;;29.40;40.60;;;;;;5065109;28;20060;-80
2023/06/13 08:47:12;;;;;;;9.60;4.40;;;29.40;41.10;;;;;;5072781;28;20032;-80
2023/06/13 08:49:38;;;;;;;7.13;3.80;;;29.50;42.00;;;;;;5074613;28;20116;-81
2023/06/13 08:52:07;;;;;;;4.63;4.30;;;29.70;41.10;;;;;;5067913;28;20116;-81
2023/06/13 08:54:39;;;;;;;13.73;4.07;;;29.90;40.60;;;;;;5071896;28;20028;-83
2023/06/13 08:57:09;;;;;;;4.95;4.45;;;30.00;40.70;;;;;;5068168;28;20068;-83
2023/06/13 08:59:37;;;;;;;7.43;4.55;;;29.90;40.50;;;;;;5078125;28;20021;-83
2023/06/13 09:02:04;;;;;;;5.47;4.53;;;29.90;41.10;;;;;;5104779;28;20032;-83
2023/06/13 09:04:35;;;;;;;112.63;52.15;;;29.80;41.90;;;;;;5084471;28;20116;-79
2023/06/13 09:07:01;;;;;;;132.40;57.30;;;30.00;42.30;;;;;;5071434;28;20047;-79
2023/06/13 09:09:28;;;;;;;5.07;4.60;;;30.20;41.60;;;;;;5063824;28;20442;-83
2023/06/13 09:11:59;;;;;;;5.15;4.65;;;30.50;41.00;;;;;;5068644;28;20021;-82
2023/06/13 09:14:27;;;;;;;8.30;4.65;;;30.50;41.20;;;;;;5071136;28;20017;-82
2023/06/13 09:16:54;;;;;;;4.68;4.30;;;30.80;41.70;;;;;;5069895;28;20103;-83
2023/06/13 09:19:20;;;;;;;7.95;4.05;;;30.80;40.70;;;;;;5081403;28;20032;-83
2023/06/13 09:21:47;;;;;;;12.75;4.57;;;31.00;40.60;;;;;;5085118;28;20028;-82
2023/06/13 09:24:13;;;;;;;7.18;4.65;;;31.10;40.70;;;;;;5071365;28;20027;-84
2023/06/13 09:26:40;;;;;;;4.85;4.32;;;30.90;40.40;;;;;;5068193;28;20044;-82
2023/06/13 09:29:11;;;;;;;6.50;4.45;;;31.10;40.30;;;;;;5066412;28;20115;-83
2023/06/13 09:31:38;;;;;;;4.75;4.10;;;31.50;39.60;;;;;;5068684;28;20482;-83
2023/06/13 09:34:06;;;;;;;7.57;4.38;;;31.40;40.30;;;;;;5072167;28;20035;-82
2023/06/13 09:36:34;;;;;;;4.82;4.35;;;31.40;39.80;;;;;;5075688;28;20068;-81
2023/06/13 09:39:03;;;;;;;22.25;10.43;;;31.80;39.60;;;;;;5063747;28;20043;-81
2023/06/13 09:41:31;;;;;;;11.75;8.50;;;32.20;39.10;;;;;;5073054;28;20075;-80
2023/06/13 09:44:01;;;;;;;7.00;4.10;;;32.20;39.10;;;;;;5075758;28;20109;-82
2023/06/13 09:46:28;;;;;;;6.88;4.20;;;32.00;38.60;;;;;;5069412;28;20075;-80
2023/06/13 09:48:53;;;;;;;4.40;4.03;;;31.90;39.00;;;;;;5066337;28;20024;-80
2023/06/13 09:51:21;;;;;;;6.97;4.65;;;31.70;39.20;;;;;;5073524;28;20355;-81
2023/06/13 09:53:49;;;;;;;4.50;4.20;;;31.70;39.00;;;;;;5070298;28;20028;-83
2023/06/13 09:56:15;;;;;;;10.38;4.70;;;31.60;39.20;;;;;;5073664;28;21907;-82
2023/06/13 09:58:41;;;;;;;8.48;5.18;;;32.10;39.30;;;;;;5072828;28;20024;-81
2023/06/13 10:01:15;;;;;;;6.90;4.85;;;32.30;38.40;;;;;;5065429;28;20081;-82
2023/06/13 10:03:41;;;;;;;7.63;4.55;;;32.60;37.50;;;;;;5071216;28;20025;-81
2023/06/13 10:06:07;;;;;;;5.38;4.40;;;32.70;37.30;;;;;;5062778;28;20571;-80
2023/06/13 10:08:34;;;;;;;5.57;5.07;;;32.60;37.80;;;;;;5065801;28;20025;-81
2023/06/13 10:11:07;;;;;;;14.73;5.10;;;32.50;38.00;;;;;;5177699;23;20148;-80
2023/06/13 10:13:39;;;;;;;7.00;5.15;;;32.70;38.00;;;;;;5014132;28;20026;-81
2023/06/13 10:16:08;;;;;;;;;;;33.10;37.20;;;;;;4999456;28;20030;-82
2023/06/13 10:18:37;;;;;;;7.72;5.10;;;33.60;36.80;;;;;;5000940;28;19916;-82
2023/06/13 10:21:03;;;;;;;7.47;4.60;;;33.70;35.70;;;;;;5003478;28;20040;-81
2023/06/13 10:23:33;;;;;;;8.10;4.78;;;33.90;36.50;;;;;;4994674;28;20028;-81
2023/06/13 10:26:06;;;;;;;8.85;4.80;;;33.90;35.50;;;;;;4998768;28;20029;-81
2023/06/13 10:29:04;;;;;;;8.35;4.82;;;34.30;35.20;;;;;;4996227;28;20062;-82
2023/06/13 10:32:00;;;;;;;6.28;4.60;;;34.50;35.20;;;;;;5002036;28;20374;-80
2023/06/13 10:34:55;;;;;;;7.82;4.45;;;34.60;35.40;;;;;;5003766;28;20038;-81
2023/06/13 10:37:24;;;;;;;19.23;11.77;;;34.70;34.80;;;;;;5004091;28;20041;-80
2023/06/13 10:39:59;;;;;;;8.05;4.60;;;34.70;35.00;;;;;;5005912;28;20130;-83
2023/06/13 10:43:05;;;;;;;9.02;4.60;;;34.90;33.90;;;;;;5021256;28;20022;-87
2023/06/13 10:45:32;;;;;;;7.55;4.50;;;35.00;34.00;;;;;;4997154;28;20156;-85
2023/06/13 10:47:59;;;;;;;5.45;4.95;;;35.00;34.60;;;;;;5006097;28;20030;-85
2023/06/13 10:50:25;;;;;;;4.72;4.05;;;34.80;33.90;;;;;;5007181;28;20014;-84
2023/06/13 10:52:55;;;;;;;7.85;4.35;;;35.00;33.80;;;;;;5008985;28;20029;-85
2023/06/13 10:55:23;;;;;;;5.50;5.00;;;35.30;33.50;;;;;;5034288;28;20014;-84
2023/06/13 10:57:56;;;;;;;11.50;5.13;;;35.50;33.70;;;;;;5033984;28;20030;-84
2023/06/13 11:00:28;;;;;;;6.60;4.45;;;35.60;33.70;;;;;;5016881;28;20140;-83
2023/06/13 11:03:11;;;;;;;6.17;4.93;;;35.50;33.40;;;;;;5025488;28;20112;-83
2023/06/13 11:05:48;;;;;;;8.40;4.50;;;35.10;34.00;;;;;;5024450;28;20280;-84
2023/06/13 11:08:14;;;;;;;6.47;5.00;;;35.00;33.90;;;;;;5025852;28;20029;-85
2023/06/13 11:10:44;;;;;;;5.95;4.70;;;35.00;34.10;;;;;;5028927;28;20033;-84
2023/06/13 11:13:20;;;;;;;7.78;5.13;;;35.00;33.60;;;;;;5020113;28;20034;-84
2023/06/13 11:15:47;;;;;;;6.65;4.90;;;35.10;33.30;;;;;;5034035;28;20029;-84
2023/06/13 11:18:14;;;;;;;5.55;4.53;;;35.20;33.20;;;;;;5030312;28;20068;-84
2023/06/13 11:20:49;;;;;;;5.20;4.72;;;35.00;33.00;;;;;;5027001;28;20076;-84
2023/06/13 11:23:18;;;;;;;7.65;4.85;;;34.60;33.80;;;;;;5040413;28;20061;-84
2023/06/13 11:25:47;;;;;;;5.15;4.72;;;34.10;34.00;;;;;;5030713;28;20424;-85
2023/06/13 11:28:18;;;;;;;17.08;8.52;;;33.80;34.60;;;;;;5026756;28;20026;-81
2023/06/13 11:30:47;;;;;;;37.38;16.23;;;34.00;35.00;;;;;;5027515;28;20031;-81
2023/06/13 11:33:13;;;;;;;5.05;4.65;;;34.00;34.50;;;;;;5028317;28;20056;-85
2023/06/13 11:35:47;;;;;;;5.50;4.88;;;34.20;34.00;;;;;;5030153;28;20030;-85
2023/06/13 11:38:18;;;;;;;6.30;5.15;;;34.40;34.20;;;;;;5046960;28;20076;-87
2023/06/13 11:40:46;;;;;;;7.13;5.40;;;34.60;34.50;;;;;;5028693;28;20014;-85
2023/06/13 11:43:14;;;;;;;5.47;4.40;;;34.50;34.70;;;;;;5028028;28;20044;-85
2023/06/13 11:45:41;;;;;;;7.22;4.55;;;34.30;33.90;;;;;;5031679;28;20112;-85
2023/06/13 11:48:11;;;;;;;9.13;4.68;;;34.40;34.90;;;;;;5026453;28;20075;-85
2023/06/13 11:50:37;;;;;;;4.85;4.45;;;34.30;35.20;;;;;;5043047;28;20032;-85
2023/06/13 11:53:12;;;;;;;10.95;6.63;;;34.30;35.00;;;;;;5021781;28;20033;-79
2023/06/13 11:55:37;;;;;;;9.70;4.60;;;34.30;35.30;;;;;;5025204;28;20026;-84
2023/06/13 11:58:03;;;;;;;7.05;4.95;;;34.30;34.60;;;;;;5022659;28;20508;-80
2023/06/13 12:00:46;;;;;;;6.13;5.03;;;34.50;35.60;;;;;;5024293;28;20385;-81
2023/06/13 12:03:12;;;;;;;7.85;4.47;;;34.40;35.00;;;;;;5023883;28;20033;-81
2023/06/13 12:05:38;;;;;;;9.02;4.90;;;34.50;34.90;;;;;;5021219;28;20045;-82
2023/06/13 12:08:04;;;;;;;5.65;4.85;;;34.70;34.90;;;;;;5024646;28;20057;-80
2023/06/13 12:10:30;;;;;;;6.18;4.60;;;34.90;35.00;;;;;;5023457;28;20118;-81
2023/06/13 12:12:57;;;;;;;4.78;4.47;;;35.00;35.30;;;;;;5041091;28;20501;-81
2023/06/13 12:15:27;;;;;;;5.60;5.07;;;35.00;34.30;;;;;;5026520;28;20450;-81
2023/06/13 12:18:00;;;;;;;7.40;4.97;;;34.90;34.10;;;;;;5020846;28;20021;-84
2023/06/13 12:20:29;;;;;;;8.25;5.28;;;34.70;35.40;;;;;;5026843;28;20029;-84
2023/06/13 12:22:59;;;;;;;10.73;5.22;;;34.60;34.90;;;;;;5026648;28;20662;-84
2023/06/13 12:25:27;;;;;;;7.05;4.80;;;34.70;34.70;;;;;;5025684;28;20108;-83
2023/06/13 12:27:55;;;;;;;9.95;5.38;;;34.90;34.80;;;;;;5024806;28;20350;-84
2023/06/13 12:30:21;;;;;;;7.93;4.82;;;34.90;34.90;;;;;;5037213;28;20033;-83
2023/06/13 12:32:48;;;;;;;6.82;5.00;;;34.80;35.90;;;;;;5022589;28;20040;-84
2023/06/13 12:35:20;;;;;;;6.35;5.43;;;34.50;35.70;;;;;;5041845;28;20031;-83
2023/06/13 12:37:54;;;;;;;7.45;5.03;;;34.40;36.00;;;;;;5025875;28;20457;-85
2023/06/13 12:40:29;;;;;;;5.28;4.40;;;34.60;35.90;;;;;;5026825;28;20040;-85
2023/06/13 12:42:57;;;;;;;6.90;5.20;;;34.80;35.80;;;;;;5026524;28;20025;-85
2023/06/13 12:45:25;;;;;;;9.02;5.30;;;34.80;35.20;;;;;;5027135;28;20025;-84
2023/06/13 12:47:55;;;;;;;6.05;4.57;;;34.80;35.10;;;;;;5038737;28;20032;-85
2023/06/13 12:50:26;;;;;;;6.35;4.55;;;34.40;35.10;;;;;;5038932;28;20093;-85
2023/06/13 12:53:08;;;;;;;5.18;4.78;;;34.50;35.80;;;;;;5028933;28;20025;-84